createdAt,value
2019-02-22T00:00:51.306Z,5.96
2019-02-22T00:03:31.138Z,5.86
2019-02-22T00:05:59.115Z,5.87
2019-02-22T00:08:32.034Z,5.87
2019-02-22T00:11:10.569Z,5.72
2019-02-22T00:13:40.697Z,5.68
2019-02-22T00:16:11.633Z,5.84
2019-02-22T00:18:42.749Z,5.72
2019-02-22T00:21:14.167Z,5.81
2019-02-22T00:23:44.834Z,5.62
2019-02-22T00:26:23.762Z,5.73
2019-02-22T00:28:55.504Z,5.79
2019-02-22T00:31:43.169Z,5.56
2019-02-22T00:34:22.201Z,5.52
2019-02-22T00:36:57.414Z,5.60
2019-02-22T00:39:27.404Z,5.55
2019-02-22T00:42:15.283Z,5.43
2019-02-22T00:45:21.971Z,5.54
2019-02-22T00:48:32.771Z,5.45
2019-02-22T00:51:49.488Z,5.48
2019-02-22T00:57:56.071Z,5.57
2019-02-22T01:01:11.174Z,5.52
2019-02-22T01:04:27.871Z,5.44
2019-02-22T01:07:42.170Z,5.50
2019-02-22T01:11:01.969Z,5.72
2019-02-22T01:17:13.371Z,5.67
2019-02-22T01:20:38.770Z,5.70
2019-02-22T01:23:36.173Z,5.57
2019-02-22T01:30:06.871Z,5.60
2019-02-22T01:33:02.972Z,5.46
2019-02-22T01:35:52.170Z,5.39
2019-02-22T01:49:00.677Z,5.32
2019-02-22T01:55:43.980Z,5.34
2019-02-22T01:59:05.675Z,5.30
2019-02-22T02:05:40.374Z,5.23
2019-02-22T02:15:34.674Z,5.23
2019-02-22T02:24:47.677Z,5.17
2019-02-22T02:28:02.076Z,5.22
2019-02-22T02:40:52.474Z,5.09
2019-02-22T02:50:36.175Z,5.06
2019-02-22T02:53:47.180Z,5.13
2019-02-22T02:57:04.976Z,5.07
2019-02-22T03:00:03.676Z,4.87
2019-02-22T03:09:48.776Z,4.90
2019-02-22T03:19:37.579Z,4.96
2019-02-22T03:22:44.178Z,4.97
2019-02-22T03:25:56.976Z,5.09
2019-02-22T03:29:15.576Z,4.96
2019-02-22T03:32:39.183Z,4.96
2019-02-22T03:45:57.376Z,4.64
2019-02-22T04:02:13.478Z,4.68
2019-02-22T04:05:27.283Z,4.65
2019-02-22T04:31:34.879Z,5.01
2019-02-22T04:35:01.383Z,4.95
2019-02-22T04:38:15.179Z,4.95
2019-02-22T04:40:52.939Z,4.98
2019-02-22T04:43:25.926Z,4.98
2019-02-22T04:45:56.975Z,5.02
2019-02-22T04:51:48.301Z,4.81
2019-02-22T04:54:18.435Z,4.70
2019-02-22T04:56:50.150Z,4.70
2019-02-22T04:59:21.923Z,4.51
2019-02-22T05:01:56.140Z,4.57
2019-02-22T05:07:47.302Z,4.71
2019-02-22T05:10:17.264Z,4.85
2019-02-22T05:12:57.483Z,4.85
2019-02-22T05:15:57.160Z,4.97
2019-02-22T05:18:37.818Z,4.90
2019-02-22T05:21:48.484Z,4.94
2019-02-22T05:24:26.438Z,4.94
2019-02-22T05:27:40.787Z,5.09
2019-02-22T05:30:05.278Z,5.31
2019-02-22T05:32:54.182Z,5.25
2019-02-22T05:35:40.856Z,5.33
2019-02-22T05:41:23.504Z,5.38
2019-02-22T05:43:56.425Z,5.35
2019-02-22T05:46:27.300Z,5.38
2019-02-22T05:49:02.991Z,5.31
2019-02-22T05:51:36.702Z,5.32
2019-02-22T05:54:07.165Z,5.30
2019-02-22T05:57:16.885Z,5.33
2019-02-22T05:59:51.328Z,5.42
2019-02-22T06:02:23.337Z,5.63
2019-02-22T06:04:53.734Z,5.95
2019-02-22T06:07:25.920Z,6.06
2019-02-22T06:10:03.750Z,6.17
2019-02-22T06:12:34.808Z,6.31
2019-02-22T06:15:38.799Z,6.38
2019-02-22T06:18:10.563Z,6.43
2019-02-22T06:20:44.497Z,6.51
2019-02-22T06:23:15.765Z,6.53
2019-02-22T06:25:51.340Z,6.54
2019-02-22T06:28:23.952Z,6.58
2019-02-22T06:30:54.553Z,6.66
2019-02-22T06:33:28.714Z,6.74
2019-02-22T06:36:01.020Z,6.77
2019-02-22T06:38:31.764Z,6.77
2019-02-22T06:41:03.883Z,6.78
2019-02-22T06:43:36.093Z,6.83
2019-02-22T06:46:10.572Z,6.94
2019-02-22T06:48:41.195Z,6.94
2019-02-22T06:54:21.238Z,7.13
2019-02-22T06:56:55.442Z,7.20
2019-02-22T06:59:27.579Z,7.25
2019-02-22T07:01:58.727Z,7.24
2019-02-22T07:04:29.280Z,7.30
2019-02-22T07:07:01.446Z,7.24
2019-02-22T07:09:37.469Z,7.29
2019-02-22T07:12:44.786Z,7.24
2019-02-22T07:15:14.965Z,7.23
2019-02-22T07:17:53.792Z,7.26
2019-02-22T07:20:28.337Z,7.35
2019-02-22T07:23:00.683Z,7.53
2019-02-22T07:28:33.598Z,7.68
2019-02-22T07:31:05.185Z,7.89
2019-02-22T07:33:40.161Z,7.97
2019-02-22T07:36:12.636Z,8.12
2019-02-22T07:38:45.349Z,8.35
2019-02-22T07:41:19.974Z,8.60
2019-02-22T07:43:56.102Z,8.73
2019-02-22T07:46:28.300Z,8.94
2019-02-22T07:49:02.590Z,9.19
2019-02-22T07:51:42.122Z,9.77
2019-02-22T07:54:20.561Z,10.35
2019-02-22T07:56:56.691Z,10.68
2019-02-22T07:59:27.471Z,11.01
2019-02-22T08:01:58.190Z,11.65
2019-02-22T08:07:13.365Z,12.44
2019-02-22T08:09:44.036Z,13.07
2019-02-22T08:12:17.467Z,13.44
2019-02-22T08:15:04.617Z,13.73
2019-02-22T08:17:35.370Z,14.25
2019-02-22T08:20:11.824Z,14.29
2019-02-22T08:22:44.297Z,14.40
2019-02-22T08:25:19.102Z,14.57
2019-02-22T08:27:53.751Z,14.37
2019-02-22T08:30:48.222Z,13.95
2019-02-22T08:33:50.580Z,14.45
2019-02-22T08:36:41.870Z,13.62
2019-02-22T08:39:34.809Z,14.00
2019-02-22T08:42:30.985Z,13.78
2019-02-22T08:45:14.312Z,15.21
2019-02-22T08:48:00.755Z,15.50
2019-02-22T08:50:58.889Z,14.81
2019-02-22T08:53:55.741Z,15.52
2019-02-22T08:56:54.693Z,16.39
2019-02-22T08:59:48.647Z,16.98
2019-02-22T09:02:42.287Z,16.78
2019-02-22T09:06:14.121Z,16.41
2019-02-22T09:08:49.234Z,17.29
2019-02-22T09:11:45.611Z,17.71
2019-02-22T09:14:31.907Z,16.97
2019-02-22T09:17:12.444Z,17.61
2019-02-22T09:19:52.317Z,17.62
2019-02-22T09:22:46.591Z,18.00
2019-02-22T09:25:25.296Z,18.09
2019-02-22T09:28:17.088Z,17.16
2019-02-22T09:31:17.403Z,17.95
2019-02-22T09:34:04.335Z,17.30
2019-02-22T09:37:02.880Z,17.85
2019-02-22T09:39:49.821Z,17.78
2019-02-22T09:42:28.546Z,18.68
2019-02-22T09:48:52.992Z,18.51
2019-02-22T09:51:31.554Z,18.68
2019-02-22T09:54:17.505Z,16.72
2019-02-22T09:57:01.988Z,14.82
2019-02-22T10:06:11.374Z,18.41
2019-02-22T10:12:05.337Z,17.58
2019-02-22T10:15:12.493Z,18.09
2019-02-22T10:18:09.138Z,17.05
2019-02-22T10:21:02.893Z,17.91
2019-02-22T10:23:44.697Z,18.18
2019-02-22T10:26:16.322Z,17.27
2019-02-22T10:28:48.279Z,17.97
2019-02-22T10:31:45.590Z,18.51
2019-02-22T10:34:35.466Z,18.35
2019-02-22T10:37:11.388Z,17.94
2019-02-22T10:40:03.876Z,18.79
2019-02-22T10:42:37.693Z,18.14
2019-02-22T10:45:31.507Z,18.43
2019-02-22T10:48:14.217Z,18.65
2019-02-22T10:51:01.006Z,19.64
2019-02-22T10:54:09.867Z,19.68
2019-02-22T10:57:21.409Z,19.04
2019-02-22T11:00:42.509Z,19.90
2019-02-22T11:03:47.805Z,19.08
2019-02-22T11:06:44.989Z,19.24
2019-02-22T11:09:18.452Z,19.98
2019-02-22T11:12:07.878Z,20.44
2019-02-22T11:14:57.762Z,19.52
2019-02-22T11:17:34.053Z,19.14
2019-02-22T11:20:25.941Z,18.25
2019-02-22T11:23:09.876Z,19.29
2019-02-22T11:25:57.059Z,19.82
2019-02-22T11:28:54.315Z,20.06
2019-02-22T11:31:39.861Z,19.58
2019-02-22T11:34:09.817Z,19.66
2019-02-22T11:36:39.573Z,19.76
2019-02-22T11:39:09.747Z,19.46
2019-02-22T11:41:42.705Z,18.83
2019-02-22T11:44:13.092Z,18.64
2019-02-22T11:46:48.605Z,17.31
2019-02-22T11:49:19.852Z,17.17
2019-02-22T11:51:56.031Z,16.41
2019-02-22T11:54:27.246Z,15.71
2019-02-22T11:57:04.487Z,16.99
2019-02-22T11:59:34.240Z,17.52
2019-02-22T12:02:05.694Z,18.20
2019-02-22T12:04:39.561Z,18.22
2019-02-22T12:07:09.401Z,18.47
2019-02-22T12:09:40.330Z,18.51
2019-02-22T12:12:10.184Z,19.25
2019-02-22T12:14:50.858Z,19.61
2019-02-22T12:17:14.949Z,20.17
2019-02-22T12:19:44.887Z,19.83
2019-02-22T12:22:14.777Z,20.35
2019-02-22T12:24:48.112Z,20.65
2019-02-22T12:27:18.219Z,20.29
2019-02-22T12:29:51.770Z,19.95
2019-02-22T12:32:30.446Z,20.16
2019-02-22T12:35:01.299Z,20.28
2019-02-22T12:37:31.156Z,20.31
2019-02-22T12:40:05.226Z,20.33
2019-02-22T12:42:35.391Z,20.22
2019-02-22T12:45:13.653Z,20.43
2019-02-22T12:47:44.260Z,20.07
2019-02-22T12:50:14.803Z,20.16
2019-02-22T12:52:44.802Z,19.72
2019-02-22T12:55:24.737Z,19.98
2019-02-22T12:57:55.449Z,20.15
2019-02-22T13:00:27.747Z,19.71
2019-02-22T13:03:02.318Z,20.06
2019-02-22T13:05:31.719Z,20.02
2019-02-22T13:08:01.803Z,20.20
2019-02-22T13:10:32.228Z,19.97
2019-02-22T13:13:07.641Z,19.62
2019-02-22T13:15:37.477Z,20.05
2019-02-22T13:18:11.036Z,20.11
2019-02-22T13:20:43.588Z,20.18
2019-02-22T13:23:21.694Z,20.44
2019-02-22T13:25:52.713Z,20.48
2019-02-22T13:28:25.358Z,20.71
2019-02-22T13:30:55.352Z,20.79
2019-02-22T13:33:39.774Z,20.45
2019-02-22T13:36:36.555Z,20.06
2019-02-22T13:39:19.059Z,19.76
2019-02-22T13:42:09.977Z,19.76
2019-02-22T13:44:43.251Z,19.52
2019-02-22T13:47:15.188Z,19.06
2019-02-22T13:49:49.872Z,18.79
2019-02-22T13:52:26.111Z,18.88
2019-02-22T13:55:03.350Z,19.01
2019-02-22T13:57:33.290Z,19.08
2019-02-22T14:00:07.899Z,19.32
2019-02-22T14:02:42.943Z,19.37
2019-02-22T14:05:19.115Z,19.34
2019-02-22T14:08:04.512Z,19.21
2019-02-22T14:10:40.653Z,19.53
2019-02-22T14:13:10.542Z,19.21
2019-02-22T14:15:40.332Z,19.08
2019-02-22T14:18:12.228Z,19.24
2019-02-22T14:20:44.083Z,19.04
2019-02-22T14:23:14.130Z,19.40
2019-02-22T14:25:43.917Z,19.64
2019-02-22T14:28:13.742Z,19.34
2019-02-22T14:30:47.539Z,19.27
2019-02-22T14:33:23.083Z,19.55
2019-02-22T14:35:52.994Z,19.29
2019-02-22T14:38:28.113Z,18.63
2019-02-22T14:40:58.966Z,17.67
2019-02-22T14:43:37.590Z,16.92
2019-02-22T14:46:07.512Z,16.28
2019-02-22T14:48:39.701Z,15.81
2019-02-22T14:51:15.030Z,15.50
2019-02-22T14:53:43.631Z,15.23
2019-02-22T14:56:16.747Z,15.17
2019-02-22T14:58:50.164Z,14.95
2019-02-22T15:01:20.004Z,14.92
2019-02-22T15:03:52.624Z,14.79
2019-02-22T15:06:26.814Z,14.71
2019-02-22T15:09:02.305Z,14.62
2019-02-22T15:11:38.306Z,14.54
2019-02-22T15:14:18.162Z,14.50
2019-02-22T15:16:53.080Z,14.47
2019-02-22T15:19:24.267Z,14.40
2019-02-22T15:22:04.763Z,14.33
2019-02-22T15:24:34.722Z,14.36
2019-02-22T15:27:11.879Z,14.28
2019-02-22T15:29:45.243Z,14.19
2019-02-22T15:32:24.472Z,14.23
2019-02-22T15:34:54.363Z,14.15
2019-02-22T15:37:26.416Z,14.21
2019-02-22T15:39:56.763Z,14.26
2019-02-22T15:42:28.722Z,14.21
2019-02-22T15:44:59.732Z,14.13
2019-02-22T15:47:30.009Z,13.98
2019-02-22T15:50:03.940Z,13.98
2019-02-22T15:52:36.690Z,14.10
2019-02-22T15:55:08.567Z,14.14
2019-02-22T15:57:40.107Z,14.09
2019-02-22T16:00:30.705Z,13.99
2019-02-22T16:03:05.677Z,13.94
2019-02-22T16:05:37.741Z,13.95
2019-02-22T16:08:09.343Z,14.07
2019-02-22T16:10:40.324Z,13.76
2019-02-22T16:13:11.417Z,13.83
2019-02-22T16:15:42.026Z,13.64
2019-02-22T16:18:20.946Z,13.83
2019-02-22T16:20:58.216Z,13.74
2019-02-22T16:23:33.893Z,13.74
2019-02-22T16:26:07.610Z,13.62
2019-02-22T16:28:58.451Z,13.50
2019-02-22T16:31:29.614Z,13.42
2019-02-22T16:34:04.704Z,13.35
2019-02-22T16:36:37.332Z,13.20
2019-02-22T16:39:08.590Z,13.15
2019-02-22T16:41:41.798Z,13.16
2019-02-22T16:44:14.063Z,13.07
2019-02-22T16:46:49.172Z,13.02
2019-02-22T16:49:24.702Z,12.96
2019-02-22T16:51:56.908Z,12.82
2019-02-22T16:54:32.949Z,12.64
2019-02-22T16:57:07.588Z,12.65
2019-02-22T16:59:41.117Z,12.67
2019-02-22T17:02:12.792Z,12.73
2019-02-22T17:04:43.495Z,12.91
2019-02-22T17:07:21.133Z,13.03
2019-02-22T17:09:52.940Z,12.93
2019-02-22T17:12:24.297Z,13.13
2019-02-22T17:15:03.942Z,13.13
2019-02-22T17:17:35.882Z,13.10
2019-02-22T17:20:10.127Z,13.12
2019-02-22T17:22:54.006Z,12.96
2019-02-22T17:25:34.604Z,12.97
2019-02-22T17:28:10.356Z,12.82
2019-02-22T17:30:47.459Z,12.51
2019-02-22T17:33:22.617Z,12.26
2019-02-22T17:36:03.655Z,12.21
2019-02-22T17:38:35.087Z,12.28
2019-02-22T17:41:06.799Z,12.32
2019-02-22T17:43:38.048Z,12.19
2019-02-22T17:46:13.587Z,12.16
2019-02-22T17:48:53.408Z,12.01
2019-02-22T17:51:28.907Z,11.89
2019-02-22T17:54:01.998Z,11.99
2019-02-22T17:56:33.694Z,12.03
2019-02-22T17:59:09.235Z,12.02
2019-02-22T18:01:45.431Z,12.18
2019-02-22T18:04:19.987Z,12.20
2019-02-22T18:06:51.691Z,12.17
2019-02-22T18:09:25.914Z,12.26
2019-02-22T18:12:04.501Z,12.04
2019-02-22T18:14:43.084Z,11.97
2019-02-22T18:20:14.396Z,11.61
2019-02-22T18:22:49.363Z,11.61
2019-02-22T18:25:26.602Z,11.69
2019-02-22T18:28:00.850Z,11.73
2019-02-22T18:30:33.088Z,11.58
2019-02-22T18:33:10.707Z,11.42
2019-02-22T18:35:45.550Z,11.31
2019-02-22T18:38:19.344Z,11.35
2019-02-22T18:40:51.885Z,11.55
2019-02-22T18:43:23.065Z,11.52
2019-02-22T18:46:00.939Z,11.65
2019-02-22T18:48:31.687Z,11.57
2019-02-22T18:51:04.100Z,11.44
2019-02-22T18:53:40.309Z,11.52
2019-02-22T18:56:12.502Z,11.31
2019-02-22T18:58:48.497Z,11.11
2019-02-22T19:01:18.865Z,11.04
2019-02-22T19:04:03.514Z,11.13
2019-02-22T19:06:46.302Z,11.11
2019-02-22T19:09:19.288Z,11.19
2019-02-22T19:12:04.003Z,10.98
2019-02-22T19:14:34.922Z,10.91
2019-02-22T19:17:30.151Z,10.69
2019-02-22T19:19:57.428Z,10.47
2019-02-22T19:22:34.306Z,10.37
2019-02-22T19:25:19.581Z,10.15
2019-02-22T19:27:56.351Z,10.06
2019-02-22T19:30:27.947Z,10.11
2019-02-22T19:33:00.265Z,10.11
2019-02-22T19:35:37.337Z,10.20
2019-02-22T19:38:13.467Z,10.30
2019-02-22T19:40:45.066Z,10.20
2019-02-22T19:43:22.872Z,10.17
2019-02-22T19:46:03.298Z,10.04
2019-02-22T19:49:00.212Z,10.00
2019-02-22T19:54:48.143Z,10.06
2019-02-22T19:57:54.770Z,10.01
2019-02-22T20:00:51.339Z,10.01
2019-02-22T20:03:39.162Z,9.83
2019-02-22T20:06:25.372Z,9.77
2019-02-22T20:09:22.433Z,9.71
2019-02-22T20:12:16.108Z,9.75
2019-02-22T20:14:55.260Z,9.76
2019-02-22T20:17:53.823Z,9.83
2019-02-22T20:20:50.419Z,9.70
2019-02-22T20:23:42.238Z,9.71
2019-02-22T20:26:38.776Z,9.83
2019-02-22T20:29:26.039Z,9.85
2019-02-22T20:35:12.630Z,9.70
2019-02-22T20:38:08.933Z,9.67
2019-02-22T20:40:50.857Z,9.73
2019-02-22T20:43:23.292Z,9.62
2019-02-22T20:46:37.506Z,9.72
2019-02-22T20:50:05.279Z,9.63
2019-02-22T20:53:00.572Z,9.55
2019-02-22T20:55:56.270Z,9.31
2019-02-22T20:58:49.317Z,9.24
2019-02-22T21:01:33.770Z,9.32
2019-02-22T21:04:38.413Z,9.47
2019-02-22T21:07:39.555Z,9.55
2019-02-22T21:10:20.284Z,9.46
2019-02-22T21:13:06.725Z,9.33
2019-02-22T21:15:45.892Z,9.34
2019-02-22T21:18:33.135Z,9.34
2019-02-22T21:21:11.053Z,9.44
2019-02-22T21:24:07.607Z,9.19
2019-02-22T21:27:09.553Z,9.16
2019-02-22T21:29:50.211Z,9.11
2019-02-22T21:32:37.412Z,9.06
2019-02-22T21:35:17.973Z,8.85
2019-02-22T21:37:59.507Z,8.74
2019-02-22T21:43:44.625Z,8.75
2019-02-22T21:46:28.801Z,8.77
2019-02-22T21:49:06.913Z,8.74
2019-02-22T21:51:46.635Z,8.66
2019-02-22T21:54:26.502Z,8.67
2019-02-22T21:57:21.410Z,8.72
2019-02-22T22:00:01.215Z,8.69
2019-02-22T22:03:18.839Z,9.15
2019-02-22T22:12:49.410Z,9.83
2019-02-22T22:15:44.277Z,9.87
2019-02-22T22:18:19.707Z,9.95
2019-02-22T22:21:28.670Z,9.94
2019-02-22T22:24:27.196Z,9.99
2019-02-22T22:30:13.189Z,9.79
2019-02-22T22:32:57.419Z,9.56
2019-02-22T22:35:56.385Z,9.40
2019-02-22T22:42:44.410Z,9.52
2019-02-22T22:45:27.322Z,9.60
2019-02-22T22:48:37.742Z,9.60
2019-02-22T22:51:30.303Z,9.57
2019-02-22T22:54:13.133Z,9.54
2019-02-22T23:01:09.893Z,9.36
2019-02-22T23:07:28.025Z,9.65
2019-02-22T23:10:09.006Z,9.43
2019-02-22T23:15:53.427Z,9.66
2019-02-22T23:18:41.094Z,9.80
2019-02-22T23:21:30.207Z,10.11
2019-02-22T23:24:07.224Z,10.03
2019-02-22T23:26:54.710Z,10.11
2019-02-22T23:29:43.591Z,9.98
2019-02-22T23:39:18.465Z,9.89
2019-02-22T23:42:28.914Z,9.82
2019-02-22T23:45:24.615Z,9.85
2019-02-22T23:48:06.670Z,9.83
2019-02-22T23:50:43.816Z,9.84
2019-02-22T23:53:46.367Z,9.73
2019-02-22T23:56:30.354Z,9.73
